Terminal Aerodrome Forecast
Issued by NWS

Home | Current Version | Previous Version | Text Only | Print | Product List | Glossary On
Versions: 1 2 3 4 5 6 7 8 9 10 11 12 13 14 15 16 17 18 19
000
FTUS45 KSLC 221120
TAFBCE
TAF
KBCE 221120Z 2212/2312 25006KT P6SM SCT007 BKN080
     FM221500 18010KT P6SM SCT040 BKN080
     FM230000 20010KT P6SM VCSH SCT020 BKN040
     FM230300 19010KT 2SM -SN BR SCT007 BKN015=

USA.gov is the U.S. government's official web portal to all federal, state and local government web resources and services.